sensor_id;sensor_type;location;lat;lon;timestamp;temperature;humidity
51914;DHT22;37940;53.002;6.930;2023-03-31T00:01:30;10.40;99.90
51914;DHT22;37940;53.002;6.930;2023-03-31T00:03:58;10.40;99.90
51914;DHT22;37940;53.002;6.930;2023-03-31T00:06:32;10.40;99.90
51914;DHT22;37940;53.002;6.930;2023-03-31T00:09:07;10.40;99.90
51914;DHT22;37940;53.002;6.930;2023-03-31T00:11:33;10.40;99.90
51914;DHT22;37940;53.002;6.930;2023-03-31T00:13:59;10.40;99.90
51914;DHT22;37940;53.002;6.930;2023-03-31T00:16:26;10.40;99.90
51914;DHT22;37940;53.002;6.930;2023-03-31T00:18:52;10.40;99.90
51914;DHT22;37940;53.002;6.930;2023-03-31T00:21:22;10.40;99.90
51914;DHT22;37940;53.002;6.930;2023-03-31T00:24:08;10.30;99.90
51914;DHT22;37940;53.002;6.930;2023-03-31T00:26:35;10.30;99.90
51914;DHT22;37940;53.002;6.930;2023-03-31T00:29:02;10.20;99.90
51914;DHT22;37940;53.002;6.930;2023-03-31T00:31:28;10.20;99.90
51914;DHT22;37940;53.002;6.930;2023-03-31T00:33:55;10.10;99.90
51914;DHT22;37940;53.002;6.930;2023-03-31T00:36:21;10.10;99.90
51914;DHT22;37940;53.002;6.930;2023-03-31T00:38:56;10.00;99.90
51914;DHT22;37940;53.002;6.930;2023-03-31T00:41:25;9.90;99.90
51914;DHT22;37940;53.002;6.930;2023-03-31T00:44:14;9.90;99.90
51914;DHT22;37940;53.002;6.930;2023-03-31T00:46:54;9.80;99.90
51914;DHT22;37940;53.002;6.930;2023-03-31T00:49:34;9.70;99.90
51914;DHT22;37940;53.002;6.930;2023-03-31T00:54:35;9.60;99.90
51914;DHT22;37940;53.002;6.930;2023-03-31T00:57:01;9.50;99.90
51914;DHT22;37940;53.002;6.930;2023-03-31T00:59:41;9.50;99.90
51914;DHT22;37940;53.002;6.930;2023-03-31T01:02:07;9.50;99.90
51914;DHT22;37940;53.002;6.930;2023-03-31T01:04:37;9.40;99.90
51914;DHT22;37940;53.002;6.930;2023-03-31T01:07:19;9.40;99.90
51914;DHT22;37940;53.002;6.930;2023-03-31T01:09:48;9.30;99.90
51914;DHT22;37940;53.002;6.930;2023-03-31T01:12:16;9.20;99.90
51914;DHT22;37940;53.002;6.930;2023-03-31T01:14:43;9.20;99.90
51914;DHT22;37940;53.002;6.930;2023-03-31T01:17:09;9.10;99.90
51914;DHT22;37940;53.002;6.930;2023-03-31T01:31:58;8.80;99.90
51914;DHT22;37940;53.002;6.930;2023-03-31T01:37:42;8.70;99.90
51914;DHT22;37940;53.002;6.930;2023-03-31T01:43:02;8.60;99.90
51914;DHT22;37940;53.002;6.930;2023-03-31T01:51:00;8.40;99.90
51914;DHT22;37940;53.002;6.930;2023-03-31T01:53:35;8.20;99.90
51914;DHT22;37940;53.002;6.930;2023-03-31T01:56:10;8.50;99.90
51914;DHT22;37940;53.002;6.930;2023-03-31T01:58:43;8.30;99.90
51914;DHT22;37940;53.002;6.930;2023-03-31T02:01:25;8.40;99.90
51914;DHT22;37940;53.002;6.930;2023-03-31T02:04:02;8.40;99.90
51914;DHT22;37940;53.002;6.930;2023-03-31T02:06:37;8.40;99.90
51914;DHT22;37940;53.002;6.930;2023-03-31T02:09:12;8.40;99.90
51914;DHT22;37940;53.002;6.930;2023-03-31T02:11:41;8.40;99.90
51914;DHT22;37940;53.002;6.930;2023-03-31T02:14:10;8.40;99.90
51914;DHT22;37940;53.002;6.930;2023-03-31T02:16:39;8.40;99.90
51914;DHT22;37940;53.002;6.930;2023-03-31T02:19:12;8.50;99.90
51914;DHT22;37940;53.002;6.930;2023-03-31T02:21:44;8.50;99.90
51914;DHT22;37940;53.002;6.930;2023-03-31T02:24:13;8.50;99.90
51914;DHT22;37940;53.002;6.930;2023-03-31T02:27:06;8.50;99.90
51914;DHT22;37940;53.002;6.930;2023-03-31T02:29:33;8.50;99.90
51914;DHT22;37940;53.002;6.930;2023-03-31T02:34:57;8.60;99.90
51914;DHT22;37940;53.002;6.930;2023-03-31T02:37:24;8.60;99.90
51914;DHT22;37940;53.002;6.930;2023-03-31T02:39:52;8.60;99.90
51914;DHT22;37940;53.002;6.930;2023-03-31T02:42:19;8.60;99.90
51914;DHT22;37940;53.002;6.930;2023-03-31T02:44:45;8.50;99.90
51914;DHT22;37940;53.002;6.930;2023-03-31T02:47:13;8.60;99.90
51914;DHT22;37940;53.002;6.930;2023-03-31T02:49:43;8.60;99.90
51914;DHT22;37940;53.002;6.930;2023-03-31T03:05:32;8.80;99.90
51914;DHT22;37940;53.002;6.930;2023-03-31T03:08:26;8.80;99.90
51914;DHT22;37940;53.002;6.930;2023-03-31T03:11:25;8.90;99.90
51914;DHT22;37940;53.002;6.930;2023-03-31T03:14:16;8.90;99.90
51914;DHT22;37940;53.002;6.930;2023-03-31T03:16:50;8.90;99.90
51914;DHT22;37940;53.002;6.930;2023-03-31T03:19:19;8.90;99.90
51914;DHT22;37940;53.002;6.930;2023-03-31T03:21:45;8.90;99.90
51914;DHT22;37940;53.002;6.930;2023-03-31T03:24:16;8.90;99.90
51914;DHT22;37940;53.002;6.930;2023-03-31T03:26:43;8.90;99.90
51914;DHT22;37940;53.002;6.930;2023-03-31T03:29:10;8.90;99.90
51914;DHT22;37940;53.002;6.930;2023-03-31T03:31:40;8.90;99.90
51914;DHT22;37940;53.002;6.930;2023-03-31T03:34:06;8.90;99.90
51914;DHT22;37940;53.002;6.930;2023-03-31T03:36:34;9.00;99.90
51914;DHT22;37940;53.002;6.930;2023-03-31T03:39:02;9.00;99.90
51914;DHT22;37940;53.002;6.930;2023-03-31T03:41:28;8.90;99.90
51914;DHT22;37940;53.002;6.930;2023-03-31T03:43:54;9.00;99.90
51914;DHT22;37940;53.002;6.930;2023-03-31T03:46:20;9.00;99.90
51914;DHT22;37940;53.002;6.930;2023-03-31T03:48:45;9.00;99.90
51914;DHT22;37940;53.002;6.930;2023-03-31T03:51:11;9.10;99.90
51914;DHT22;37940;53.002;6.930;2023-03-31T03:53:37;9.10;99.90
51914;DHT22;37940;53.002;6.930;2023-03-31T03:56:02;9.10;99.90
51914;DHT22;37940;53.002;6.930;2023-03-31T03:58:28;9.10;99.90
51914;DHT22;37940;53.002;6.930;2023-03-31T04:00:54;9.10;99.90
51914;DHT22;37940;53.002;6.930;2023-03-31T04:03:21;9.20;99.90
51914;DHT22;37940;53.002;6.930;2023-03-31T04:05:47;9.20;99.90
51914;DHT22;37940;53.002;6.930;2023-03-31T04:08:16;9.20;99.90
51914;DHT22;37940;53.002;6.930;2023-03-31T04:10:44;9.20;99.90
51914;DHT22;37940;53.002;6.930;2023-03-31T04:13:10;9.30;99.90
51914;DHT22;37940;53.002;6.930;2023-03-31T04:15:36;9.30;99.90
51914;DHT22;37940;53.002;6.930;2023-03-31T04:18:02;9.30;99.90
51914;DHT22;37940;53.002;6.930;2023-03-31T04:20:28;9.30;99.90
51914;DHT22;37940;53.002;6.930;2023-03-31T04:22:55;9.30;99.90
51914;DHT22;37940;53.002;6.930;2023-03-31T04:25:20;9.40;99.90
51914;DHT22;37940;53.002;6.930;2023-03-31T04:27:49;9.30;99.90
51914;DHT22;37940;53.002;6.930;2023-03-31T04:30:20;9.30;99.90
51914;DHT22;37940;53.002;6.930;2023-03-31T04:32:50;9.30;99.90
51914;DHT22;37940;53.002;6.930;2023-03-31T04:35:18;9.30;99.90
51914;DHT22;37940;53.002;6.930;2023-03-31T04:37:49;9.30;99.90
51914;DHT22;37940;53.002;6.930;2023-03-31T04:40:15;9.30;99.90
51914;DHT22;37940;53.002;6.930;2023-03-31T04:42:43;9.30;99.90
51914;DHT22;37940;53.002;6.930;2023-03-31T04:45:11;9.30;99.90
51914;DHT22;37940;53.002;6.930;2023-03-31T04:47:37;9.30;99.90
51914;DHT22;37940;53.002;6.930;2023-03-31T04:50:04;9.30;99.90
51914;DHT22;37940;53.002;6.930;2023-03-31T04:52:30;9.20;99.90
51914;DHT22;37940;53.002;6.930;2023-03-31T04:54:56;9.20;99.90
51914;DHT22;37940;53.002;6.930;2023-03-31T04:57:21;9.20;99.90
51914;DHT22;37940;53.002;6.930;2023-03-31T04:59:47;9.20;99.90
51914;DHT22;37940;53.002;6.930;2023-03-31T05:02:13;9.20;99.90
51914;DHT22;37940;53.002;6.930;2023-03-31T05:04:40;9.20;99.90
51914;DHT22;37940;53.002;6.930;2023-03-31T05:07:05;9.20;99.90
51914;DHT22;37940;53.002;6.930;2023-03-31T05:09:34;9.20;99.90
51914;DHT22;37940;53.002;6.930;2023-03-31T05:12:00;9.20;99.90
51914;DHT22;37940;53.002;6.930;2023-03-31T05:14:25;9.20;99.90
51914;DHT22;37940;53.002;6.930;2023-03-31T05:16:51;9.20;99.90
51914;DHT22;37940;53.002;6.930;2023-03-31T05:19:16;9.20;99.90
51914;DHT22;37940;53.002;6.930;2023-03-31T05:21:42;9.20;99.90
51914;DHT22;37940;53.002;6.930;2023-03-31T05:24:08;9.20;99.90
51914;DHT22;37940;53.002;6.930;2023-03-31T05:26:34;9.20;99.90
51914;DHT22;37940;53.002;6.930;2023-03-31T05:28:59;9.20;99.90
51914;DHT22;37940;53.002;6.930;2023-03-31T05:31:25;9.20;99.90
51914;DHT22;37940;53.002;6.930;2023-03-31T05:33:51;9.20;99.90
51914;DHT22;37940;53.002;6.930;2023-03-31T05:36:17;9.20;99.90
51914;DHT22;37940;53.002;6.930;2023-03-31T05:38:43;9.20;99.90
51914;DHT22;37940;53.002;6.930;2023-03-31T05:41:09;9.30;99.90
51914;DHT22;37940;53.002;6.930;2023-03-31T05:43:36;9.30;99.90
51914;DHT22;37940;53.002;6.930;2023-03-31T05:46:02;9.30;99.90
51914;DHT22;37940;53.002;6.930;2023-03-31T05:48:28;9.30;99.90
51914;DHT22;37940;53.002;6.930;2023-03-31T05:50:58;9.30;99.90
51914;DHT22;37940;53.002;6.930;2023-03-31T05:53:25;9.30;99.90
51914;DHT22;37940;53.002;6.930;2023-03-31T05:55:56;9.30;99.90
51914;DHT22;37940;53.002;6.930;2023-03-31T05:58:22;9.40;99.90
51914;DHT22;37940;53.002;6.930;2023-03-31T06:00:47;9.40;99.90
51914;DHT22;37940;53.002;6.930;2023-03-31T06:03:13;9.40;99.90
51914;DHT22;37940;53.002;6.930;2023-03-31T06:05:38;9.40;99.90
51914;DHT22;37940;53.002;6.930;2023-03-31T06:08:06;9.40;99.90
51914;DHT22;37940;53.002;6.930;2023-03-31T06:10:32;9.50;99.90
51914;DHT22;37940;53.002;6.930;2023-03-31T06:12:57;9.50;99.90
51914;DHT22;37940;53.002;6.930;2023-03-31T06:15:23;9.50;99.90
51914;DHT22;37940;53.002;6.930;2023-03-31T06:17:49;9.50;99.90
51914;DHT22;37940;53.002;6.930;2023-03-31T06:20:15;9.50;99.90
51914;DHT22;37940;53.002;6.930;2023-03-31T06:22:40;9.50;99.90
51914;DHT22;37940;53.002;6.930;2023-03-31T06:25:06;9.50;99.90
51914;DHT22;37940;53.002;6.930;2023-03-31T06:27:32;9.50;99.90
51914;DHT22;37940;53.002;6.930;2023-03-31T06:29:58;9.50;99.90
51914;DHT22;37940;53.002;6.930;2023-03-31T06:32:23;9.60;99.90
51914;DHT22;37940;53.002;6.930;2023-03-31T06:34:50;9.60;99.90
51914;DHT22;37940;53.002;6.930;2023-03-31T06:37:15;9.60;99.90
51914;DHT22;37940;53.002;6.930;2023-03-31T06:39:41;9.60;99.90
51914;DHT22;37940;53.002;6.930;2023-03-31T06:42:09;9.60;99.90
51914;DHT22;37940;53.002;6.930;2023-03-31T06:44:35;9.60;99.90
51914;DHT22;37940;53.002;6.930;2023-03-31T06:47:01;9.60;99.90
51914;DHT22;37940;53.002;6.930;2023-03-31T06:49:27;9.60;99.90
51914;DHT22;37940;53.002;6.930;2023-03-31T06:51:52;9.60;99.90
51914;DHT22;37940;53.002;6.930;2023-03-31T06:54:18;9.60;99.90
51914;DHT22;37940;53.002;6.930;2023-03-31T06:56:44;9.60;99.90
51914;DHT22;37940;53.002;6.930;2023-03-31T06:59:10;9.60;99.90
51914;DHT22;37940;53.002;6.930;2023-03-31T07:01:38;9.60;99.90
51914;DHT22;37940;53.002;6.930;2023-03-31T07:04:07;9.70;99.90
51914;DHT22;37940;53.002;6.930;2023-03-31T07:06:33;9.70;99.90
51914;DHT22;37940;53.002;6.930;2023-03-31T07:08:59;9.70;99.90
51914;DHT22;37940;53.002;6.930;2023-03-31T07:11:25;9.70;99.90
51914;DHT22;37940;53.002;6.930;2023-03-31T07:13:50;9.70;99.90
51914;DHT22;37940;53.002;6.930;2023-03-31T07:16:16;9.80;99.90
51914;DHT22;37940;53.002;6.930;2023-03-31T07:18:42;9.80;99.90
51914;DHT22;37940;53.002;6.930;2023-03-31T07:21:07;9.70;99.90
51914;DHT22;37940;53.002;6.930;2023-03-31T07:23:34;9.70;99.90
51914;DHT22;37940;53.002;6.930;2023-03-31T07:26:00;9.70;99.90
51914;DHT22;37940;53.002;6.930;2023-03-31T07:28:30;9.70;99.90
51914;DHT22;37940;53.002;6.930;2023-03-31T07:30:55;9.70;99.90
51914;DHT22;37940;53.002;6.930;2023-03-31T07:33:21;9.70;99.90
51914;DHT22;37940;53.002;6.930;2023-03-31T07:35:47;9.80;99.90
51914;DHT22;37940;53.002;6.930;2023-03-31T07:38:13;9.80;99.90
51914;DHT22;37940;53.002;6.930;2023-03-31T07:40:39;9.70;99.90
51914;DHT22;37940;53.002;6.930;2023-03-31T07:43:05;9.70;99.90
51914;DHT22;37940;53.002;6.930;2023-03-31T07:45:32;9.80;99.90
51914;DHT22;37940;53.002;6.930;2023-03-31T07:47:58;9.80;99.90
51914;DHT22;37940;53.002;6.930;2023-03-31T07:50:24;9.80;99.90
51914;DHT22;37940;53.002;6.930;2023-03-31T07:52:50;9.80;99.90
51914;DHT22;37940;53.002;6.930;2023-03-31T07:55:17;9.20;99.90
51914;DHT22;37940;53.002;6.930;2023-03-31T07:57:44;9.80;99.90
51914;DHT22;37940;53.002;6.930;2023-03-31T08:00:12;9.80;99.90
51914;DHT22;37940;53.002;6.930;2023-03-31T08:02:41;9.80;99.90
51914;DHT22;37940;53.002;6.930;2023-03-31T08:05:08;9.80;99.90
51914;DHT22;37940;53.002;6.930;2023-03-31T08:07:36;9.80;99.90
51914;DHT22;37940;53.002;6.930;2023-03-31T08:10:04;9.80;99.90
51914;DHT22;37940;53.002;6.930;2023-03-31T08:12:30;9.80;99.90
51914;DHT22;37940;53.002;6.930;2023-03-31T08:14:56;9.90;99.90
51914;DHT22;37940;53.002;6.930;2023-03-31T08:17:22;9.90;99.90
51914;DHT22;37940;53.002;6.930;2023-03-31T08:19:47;9.90;99.90
51914;DHT22;37940;53.002;6.930;2023-03-31T08:22:14;10.00;99.90
51914;DHT22;37940;53.002;6.930;2023-03-31T08:24:40;10.00;99.90
51914;DHT22;37940;53.002;6.930;2023-03-31T08:27:06;10.10;99.90
51914;DHT22;37940;53.002;6.930;2023-03-31T08:29:31;10.20;99.90
51914;DHT22;37940;53.002;6.930;2023-03-31T08:31:57;10.20;99.90
51914;DHT22;37940;53.002;6.930;2023-03-31T08:34:23;10.20;99.90
51914;DHT22;37940;53.002;6.930;2023-03-31T08:36:49;10.30;99.90
51914;DHT22;37940;53.002;6.930;2023-03-31T08:39:15;10.30;99.90
51914;DHT22;37940;53.002;6.930;2023-03-31T08:41:59;10.40;99.90
51914;DHT22;37940;53.002;6.930;2023-03-31T08:44:57;10.40;99.90
51914;DHT22;37940;53.002;6.930;2023-03-31T08:47:26;10.40;99.90
51914;DHT22;37940;53.002;6.930;2023-03-31T08:49:57;10.40;99.90
51914;DHT22;37940;53.002;6.930;2023-03-31T08:52:36;10.50;99.90
51914;DHT22;37940;53.002;6.930;2023-03-31T08:55:09;10.50;99.90
51914;DHT22;37940;53.002;6.930;2023-03-31T08:57:51;10.50;99.90
51914;DHT22;37940;53.002;6.930;2023-03-31T09:00:18;10.60;99.90
51914;DHT22;37940;53.002;6.930;2023-03-31T09:03:01;10.60;99.90
51914;DHT22;37940;53.002;6.930;2023-03-31T09:08:30;10.70;99.90
51914;DHT22;37940;53.002;6.930;2023-03-31T09:17:09;10.60;99.90
51914;DHT22;37940;53.002;6.930;2023-03-31T09:20:01;10.60;99.90
51914;DHT22;37940;53.002;6.930;2023-03-31T09:22:37;10.60;99.90
51914;DHT22;37940;53.002;6.930;2023-03-31T09:27:33;10.70;99.90
51914;DHT22;37940;53.002;6.930;2023-03-31T09:30:23;10.70;99.90
51914;DHT22;37940;53.002;6.930;2023-03-31T09:32:53;10.80;99.90
51914;DHT22;37940;53.002;6.930;2023-03-31T09:35:24;10.80;99.90
51914;DHT22;37940;53.002;6.930;2023-03-31T09:37:51;10.90;99.90
51914;DHT22;37940;53.002;6.930;2023-03-31T09:40:26;10.90;99.90
51914;DHT22;37940;53.002;6.930;2023-03-31T09:43:04;11.00;99.90
51914;DHT22;37940;53.002;6.930;2023-03-31T09:45:31;11.10;99.90
51914;DHT22;37940;53.002;6.930;2023-03-31T09:48:02;11.20;99.90
51914;DHT22;37940;53.002;6.930;2023-03-31T09:50:29;11.20;99.90
51914;DHT22;37940;53.002;6.930;2023-03-31T09:52:59;11.30;99.90
51914;DHT22;37940;53.002;6.930;2023-03-31T09:55:49;11.30;99.90
51914;DHT22;37940;53.002;6.930;2023-03-31T09:58:16;11.30;99.90
51914;DHT22;37940;53.002;6.930;2023-03-31T10:00:56;11.30;99.90
51914;DHT22;37940;53.002;6.930;2023-03-31T10:03:23;11.20;99.90
51914;DHT22;37940;53.002;6.930;2023-03-31T10:05:51;11.20;99.90
51914;DHT22;37940;53.002;6.930;2023-03-31T10:08:25;11.20;99.90
51914;DHT22;37940;53.002;6.930;2023-03-31T10:10:54;11.20;99.90
51914;DHT22;37940;53.002;6.930;2023-03-31T10:16:33;11.20;99.90
51914;DHT22;37940;53.002;6.930;2023-03-31T10:19:21;11.20;99.90
51914;DHT22;37940;53.002;6.930;2023-03-31T10:21:54;11.30;99.90
51914;DHT22;37940;53.002;6.930;2023-03-31T10:24:20;11.30;99.90
51914;DHT22;37940;53.002;6.930;2023-03-31T10:26:52;11.30;99.90
51914;DHT22;37940;53.002;6.930;2023-03-31T10:29:44;11.30;99.90
51914;DHT22;37940;53.002;6.930;2023-03-31T10:34:41;11.40;99.90
51914;DHT22;37940;53.002;6.930;2023-03-31T10:37:13;11.40;99.90
51914;DHT22;37940;53.002;6.930;2023-03-31T10:39:42;11.40;99.90
51914;DHT22;37940;53.002;6.930;2023-03-31T10:42:09;11.50;99.90
51914;DHT22;37940;53.002;6.930;2023-03-31T10:44:37;11.70;99.90
51914;DHT22;37940;53.002;6.930;2023-03-31T10:47:26;11.80;99.90
51914;DHT22;37940;53.002;6.930;2023-03-31T10:49:56;11.90;99.90
51914;DHT22;37940;53.002;6.930;2023-03-31T10:52:23;12.10;99.90
51914;DHT22;37940;53.002;6.930;2023-03-31T10:54:58;12.20;99.90
51914;DHT22;37940;53.002;6.930;2023-03-31T11:10:56;12.90;99.90
51914;DHT22;37940;53.002;6.930;2023-03-31T11:19:18;13.40;99.90
51914;DHT22;37940;53.002;6.930;2023-03-31T11:30:36;13.90;99.90
51914;DHT22;37940;53.002;6.930;2023-03-31T11:33:20;13.80;99.90
51914;DHT22;37940;53.002;6.930;2023-03-31T11:39:03;13.30;99.90
51914;DHT22;37940;53.002;6.930;2023-03-31T11:44:18;13.00;99.90
51914;DHT22;37940;53.002;6.930;2023-03-31T11:47:03;12.90;99.90
51914;DHT22;37940;53.002;6.930;2023-03-31T11:49:38;13.00;99.90
51914;DHT22;37940;53.002;6.930;2023-03-31T11:52:15;13.30;99.90
51914;DHT22;37940;53.002;6.930;2023-03-31T11:54:54;13.50;99.90
51914;DHT22;37940;53.002;6.930;2023-03-31T11:59:56;13.70;99.90
51914;DHT22;37940;53.002;6.930;2023-03-31T12:05:04;13.60;99.90
51914;DHT22;37940;53.002;6.930;2023-03-31T12:07:50;13.70;99.90
51914;DHT22;37940;53.002;6.930;2023-03-31T12:10:22;13.80;99.90
51914;DHT22;37940;53.002;6.930;2023-03-31T12:12:58;13.80;99.90
51914;DHT22;37940;53.002;6.930;2023-03-31T12:15:36;13.90;99.90
51914;DHT22;37940;53.002;6.930;2023-03-31T12:20:38;14.00;99.90
51914;DHT22;37940;53.002;6.930;2023-03-31T12:23:12;14.00;99.90
51914;DHT22;37940;53.002;6.930;2023-03-31T12:28:29;14.20;99.90
51914;DHT22;37940;53.002;6.930;2023-03-31T12:30:59;14.40;99.90
51914;DHT22;37940;53.002;6.930;2023-03-31T12:33:27;14.40;99.90
51914;DHT22;37940;53.002;6.930;2023-03-31T12:44:39;14.40;99.90
51914;DHT22;37940;53.002;6.930;2023-03-31T12:55:48;14.00;99.90
51914;DHT22;37940;53.002;6.930;2023-03-31T13:09:00;14.00;99.90
51914;DHT22;37940;53.002;6.930;2023-03-31T13:14:20;14.40;99.90
51914;DHT22;37940;53.002;6.930;2023-03-31T13:16:47;14.60;99.90
51914;DHT22;37940;53.002;6.930;2023-03-31T13:19:40;14.70;99.90
51914;DHT22;37940;53.002;6.930;2023-03-31T13:22:25;14.70;99.90
51914;DHT22;37940;53.002;6.930;2023-03-31T13:24:51;14.50;99.90
51914;DHT22;37940;53.002;6.930;2023-03-31T13:27:31;14.30;99.90
51914;DHT22;37940;53.002;6.930;2023-03-31T13:29:57;14.10;99.90
51914;DHT22;37940;53.002;6.930;2023-03-31T13:32:24;13.90;99.90
51914;DHT22;37940;53.002;6.930;2023-03-31T13:40:12;13.50;99.90
51914;DHT22;37940;53.002;6.930;2023-03-31T13:45:58;13.50;99.90
51914;DHT22;37940;53.002;6.930;2023-03-31T13:51:14;13.70;99.90
51914;DHT22;37940;53.002;6.930;2023-03-31T14:05:08;13.80;99.90
51914;DHT22;37940;53.002;6.930;2023-03-31T14:07:52;13.80;99.90
51914;DHT22;37940;53.002;6.930;2023-03-31T14:10:26;13.80;99.90
51914;DHT22;37940;53.002;6.930;2023-03-31T14:13:13;13.60;99.90
51914;DHT22;37940;53.002;6.930;2023-03-31T14:18:24;13.40;99.90
51914;DHT22;37940;53.002;6.930;2023-03-31T14:23:48;13.40;99.90
51914;DHT22;37940;53.002;6.930;2023-03-31T14:31:53;13.50;99.90
51914;DHT22;37940;53.002;6.930;2023-03-31T14:34:29;13.50;99.90
51914;DHT22;37940;53.002;6.930;2023-03-31T14:37:01;13.50;99.90
51914;DHT22;37940;53.002;6.930;2023-03-31T14:39:32;13.50;99.90
51914;DHT22;37940;53.002;6.930;2023-03-31T14:42:04;13.50;99.90
51914;DHT22;37940;53.002;6.930;2023-03-31T14:44:33;13.50;99.90
51914;DHT22;37940;53.002;6.930;2023-03-31T14:46:59;13.50;99.90
51914;DHT22;37940;53.002;6.930;2023-03-31T14:49:36;13.40;99.90
51914;DHT22;37940;53.002;6.930;2023-03-31T14:52:18;13.40;99.90
51914;DHT22;37940;53.002;6.930;2023-03-31T14:54:45;13.40;99.90
51914;DHT22;37940;53.002;6.930;2023-03-31T14:57:19;13.40;99.90
51914;DHT22;37940;53.002;6.930;2023-03-31T14:59:50;13.50;99.90
51914;DHT22;37940;53.002;6.930;2023-03-31T15:02:29;13.40;99.90
51914;DHT22;37940;53.002;6.930;2023-03-31T15:04:56;13.40;99.90
51914;DHT22;37940;53.002;6.930;2023-03-31T15:07:22;13.20;99.90
51914;DHT22;37940;53.002;6.930;2023-03-31T15:09:49;13.20;99.90
51914;DHT22;37940;53.002;6.930;2023-03-31T15:12:18;13.20;99.90
51914;DHT22;37940;53.002;6.930;2023-03-31T15:14:48;13.10;99.90
51914;DHT22;37940;53.002;6.930;2023-03-31T15:17:27;13.20;99.90
51914;DHT22;37940;53.002;6.930;2023-03-31T15:19:58;13.20;99.90
51914;DHT22;37940;53.002;6.930;2023-03-31T15:22:27;13.10;99.90
51914;DHT22;37940;53.002;6.930;2023-03-31T15:24:53;13.00;99.90
51914;DHT22;37940;53.002;6.930;2023-03-31T15:28:03;13.00;99.90
51914;DHT22;37940;53.002;6.930;2023-03-31T15:33:31;12.90;99.90
51914;DHT22;37940;53.002;6.930;2023-03-31T15:35:57;12.80;99.90
51914;DHT22;37940;53.002;6.930;2023-03-31T15:38:27;12.80;99.90
51914;DHT22;37940;53.002;6.930;2023-03-31T15:40:55;12.80;99.90
51914;DHT22;37940;53.002;6.930;2023-03-31T15:43:41;12.70;99.90
51914;DHT22;37940;53.002;6.930;2023-03-31T15:46:15;12.80;99.90
51914;DHT22;37940;53.002;6.930;2023-03-31T15:48:53;12.80;99.90
51914;DHT22;37940;53.002;6.930;2023-03-31T15:51:33;12.80;99.90
51914;DHT22;37940;53.002;6.930;2023-03-31T15:54:00;12.90;99.90
51914;DHT22;37940;53.002;6.930;2023-03-31T15:56:44;12.90;99.90
51914;DHT22;37940;53.002;6.930;2023-03-31T15:59:43;12.80;99.90
51914;DHT22;37940;53.002;6.930;2023-03-31T16:02:59;12.80;99.90
51914;DHT22;37940;53.002;6.930;2023-03-31T16:05:00;12.80;99.90
51914;DHT22;37940;53.002;6.930;2023-03-31T16:07:30;12.70;99.90
51914;DHT22;37940;53.002;6.930;2023-03-31T16:10:07;12.70;99.90
51914;DHT22;37940;53.002;6.930;2023-03-31T16:12:38;12.70;99.90
51914;DHT22;37940;53.002;6.930;2023-03-31T16:15:16;12.60;99.90
51914;DHT22;37940;53.002;6.930;2023-03-31T16:17:55;12.60;99.90
51914;DHT22;37940;53.002;6.930;2023-03-31T16:20:32;12.50;99.90
51914;DHT22;37940;53.002;6.930;2023-03-31T16:23:14;12.50;99.90
51914;DHT22;37940;53.002;6.930;2023-03-31T16:25:41;12.40;99.90
51914;DHT22;37940;53.002;6.930;2023-03-31T16:28:13;12.40;99.90
51914;DHT22;37940;53.002;6.930;2023-03-31T16:30:42;12.50;99.90
51914;DHT22;37940;53.002;6.930;2023-03-31T16:33:14;12.40;99.90
51914;DHT22;37940;53.002;6.930;2023-03-31T16:35:42;12.40;99.90
51914;DHT22;37940;53.002;6.930;2023-03-31T16:38:10;12.30;99.90
51914;DHT22;37940;53.002;6.930;2023-03-31T16:40:39;12.30;99.90
51914;DHT22;37940;53.002;6.930;2023-03-31T16:43:15;12.30;99.90
51914;DHT22;37940;53.002;6.930;2023-03-31T16:45:59;12.30;99.90
51914;DHT22;37940;53.002;6.930;2023-03-31T16:48:27;12.20;99.90
51914;DHT22;37940;53.002;6.930;2023-03-31T16:50:55;12.20;99.90
51914;DHT22;37940;53.002;6.930;2023-03-31T16:53:24;12.20;99.90
51914;DHT22;37940;53.002;6.930;2023-03-31T16:55:52;12.10;99.90
51914;DHT22;37940;53.002;6.930;2023-03-31T16:58:18;12.00;99.90
51914;DHT22;37940;53.002;6.930;2023-03-31T17:00:44;12.00;99.90
51914;DHT22;37940;53.002;6.930;2023-03-31T17:03:11;11.90;99.90
51914;DHT22;37940;53.002;6.930;2023-03-31T17:05:39;11.80;99.90
51914;DHT22;37940;53.002;6.930;2023-03-31T17:08:07;11.70;99.90
51914;DHT22;37940;53.002;6.930;2023-03-31T17:10:34;11.50;99.90
51914;DHT22;37940;53.002;6.930;2023-03-31T17:12:59;11.40;99.90
51914;DHT22;37940;53.002;6.930;2023-03-31T17:15:25;11.40;99.90
51914;DHT22;37940;53.002;6.930;2023-03-31T17:17:53;11.30;99.90
51914;DHT22;37940;53.002;6.930;2023-03-31T17:20:20;11.20;99.90
51914;DHT22;37940;53.002;6.930;2023-03-31T17:22:46;11.10;99.90
51914;DHT22;37940;53.002;6.930;2023-03-31T17:25:11;11.10;99.90
51914;DHT22;37940;53.002;6.930;2023-03-31T17:27:38;11.10;99.90
51914;DHT22;37940;53.002;6.930;2023-03-31T17:30:05;11.00;99.90
51914;DHT22;37940;53.002;6.930;2023-03-31T17:32:31;11.00;99.90
51914;DHT22;37940;53.002;6.930;2023-03-31T17:34:57;11.00;99.90
51914;DHT22;37940;53.002;6.930;2023-03-31T17:37:23;11.00;99.90
51914;DHT22;37940;53.002;6.930;2023-03-31T17:39:49;11.00;99.90
51914;DHT22;37940;53.002;6.930;2023-03-31T17:42:15;10.90;99.90
51914;DHT22;37940;53.002;6.930;2023-03-31T17:44:41;10.90;99.90
51914;DHT22;37940;53.002;6.930;2023-03-31T17:47:07;10.90;99.90
51914;DHT22;37940;53.002;6.930;2023-03-31T17:49:33;10.80;99.90
51914;DHT22;37940;53.002;6.930;2023-03-31T17:51:59;10.80;99.90
51914;DHT22;37940;53.002;6.930;2023-03-31T17:54:25;10.70;99.90
51914;DHT22;37940;53.002;6.930;2023-03-31T17:56:51;10.70;99.90
51914;DHT22;37940;53.002;6.930;2023-03-31T17:59:20;10.70;99.90
51914;DHT22;37940;53.002;6.930;2023-03-31T18:01:46;10.70;99.90
51914;DHT22;37940;53.002;6.930;2023-03-31T18:04:13;10.70;99.90
51914;DHT22;37940;53.002;6.930;2023-03-31T18:06:39;10.60;99.90
51914;DHT22;37940;53.002;6.930;2023-03-31T18:09:06;10.60;99.90
51914;DHT22;37940;53.002;6.930;2023-03-31T18:11:34;10.60;99.90
51914;DHT22;37940;53.002;6.930;2023-03-31T18:14:00;10.60;99.90
51914;DHT22;37940;53.002;6.930;2023-03-31T18:16:27;10.60;99.90
51914;DHT22;37940;53.002;6.930;2023-03-31T18:18:54;10.60;99.90
51914;DHT22;37940;53.002;6.930;2023-03-31T18:21:20;10.50;99.90
51914;DHT22;37940;53.002;6.930;2023-03-31T18:23:45;10.50;99.90
51914;DHT22;37940;53.002;6.930;2023-03-31T18:26:17;10.50;99.90
51914;DHT22;37940;53.002;6.930;2023-03-31T18:28:44;10.50;99.90
51914;DHT22;37940;53.002;6.930;2023-03-31T18:31:11;10.50;99.90
51914;DHT22;37940;53.002;6.930;2023-03-31T18:33:37;10.50;99.90
51914;DHT22;37940;53.002;6.930;2023-03-31T18:36:04;10.50;99.90
51914;DHT22;37940;53.002;6.930;2023-03-31T18:38:30;10.50;99.90
51914;DHT22;37940;53.002;6.930;2023-03-31T18:40:57;10.50;99.90
51914;DHT22;37940;53.002;6.930;2023-03-31T18:43:23;10.50;99.90
51914;DHT22;37940;53.002;6.930;2023-03-31T18:45:52;10.40;99.90
51914;DHT22;37940;53.002;6.930;2023-03-31T18:48:19;10.40;99.90